createdAt,value
2022-12-28T00:00:22.711Z,58.67
2022-12-28T00:02:51.368Z,57.30
2022-12-28T00:05:23.557Z,54.10
2022-12-28T00:07:52.042Z,50.35
2022-12-28T00:11:08.151Z,49.65
2022-12-28T00:13:09.047Z,49.88
2022-12-28T00:15:38.937Z,49.42
2022-12-28T00:18:07.436Z,58.83
2022-12-28T00:20:39.239Z,53.38
2022-12-28T00:23:08.306Z,52.75
2022-12-28T00:25:40.713Z,48.40
2022-12-28T00:28:09.514Z,51.85
2022-12-28T00:30:38.323Z,49.65
2022-12-28T00:33:08.187Z,57.78
2022-12-28T00:35:45.832Z,67.53
2022-12-28T00:38:15.407Z,68.03
2022-12-28T00:40:44.597Z,61.45
2022-12-28T00:43:12.811Z,55.90
2022-12-28T00:45:41.303Z,55.55
2022-12-28T00:48:10.862Z,58.97
2022-12-28T00:50:41.559Z,58.38
2022-12-28T00:53:10.443Z,57.88
2022-12-28T00:55:39.302Z,58.33
2022-12-28T00:58:09.292Z,54.38
2022-12-28T01:00:39.091Z,54.90
2022-12-28T01:03:09.845Z,54.33
2022-12-28T01:05:43.663Z,54.47
2022-12-28T01:08:12.251Z,51.78
2022-12-28T01:10:41.160Z,48.50
2022-12-28T01:13:10.183Z,49.92
2022-12-28T01:15:40.023Z,58.33
2022-12-28T01:18:08.449Z,64.38
2022-12-28T01:20:37.134Z,80.63
2022-12-28T01:23:08.095Z,73.68
2022-12-28T01:25:39.363Z,67.38
2022-12-28T01:28:09.085Z,54.63
2022-12-28T01:30:39.185Z,53.08
2022-12-28T01:33:08.209Z,58.20
2022-12-28T01:35:39.790Z,58.22
2022-12-28T01:38:09.696Z,60.90
2022-12-28T01:40:43.135Z,63.20
2022-12-28T01:43:14.498Z,57.90
2022-12-28T01:45:57.987Z,55.75
2022-12-28T01:48:27.549Z,52.53
2022-12-28T01:50:55.801Z,52.25
2022-12-28T01:53:28.746Z,51.80
2022-12-28T01:55:57.322Z,50.75
2022-12-28T01:58:38.142Z,50.97
2022-12-28T02:01:07.368Z,54.80
2022-12-28T02:03:36.918Z,52.35
2022-12-28T02:06:09.379Z,59.20
2022-12-28T02:08:44.410Z,65.65
2022-12-28T02:11:15.907Z,60.25
2022-12-28T02:13:48.852Z,60.22
2022-12-28T02:16:17.517Z,61.72
2022-12-28T02:18:48.371Z,57.22
2022-12-28T02:21:26.516Z,53.88
2022-12-28T02:24:30.024Z,52.00
2022-12-28T02:27:03.399Z,56.42
2022-12-28T02:29:59.191Z,53.85
2022-12-28T02:33:02.037Z,51.00
2022-12-28T02:35:44.197Z,51.63
2022-12-28T02:38:20.081Z,50.97
2022-12-28T02:40:53.907Z,48.97
2022-12-28T02:43:22.690Z,53.63
2022-12-28T02:46:15.528Z,48.05
2022-12-28T02:49:11.561Z,51.60
2022-12-28T02:51:56.892Z,50.67
2022-12-28T02:55:09.441Z,52.83
2022-12-28T02:58:00.079Z,50.33
2022-12-28T03:00:38.407Z,50.92
2022-12-28T03:03:25.505Z,54.08
2022-12-28T03:06:25.541Z,47.85
2022-12-28T03:09:03.684Z,47.97
2022-12-28T03:11:42.891Z,49.35
2022-12-28T03:14:16.305Z,50.97
2022-12-28T03:17:08.743Z,47.65
2022-12-28T03:19:59.763Z,46.83
2022-12-28T03:22:48.955Z,44.13
2022-12-28T03:25:40.148Z,46.97
2022-12-28T03:28:34.324Z,49.97
2022-12-28T03:31:08.944Z,44.10
2022-12-28T03:33:40.568Z,47.42
2022-12-28T03:36:18.083Z,49.85
2022-12-28T03:38:54.702Z,52.60
2022-12-28T03:41:31.100Z,47.47
2022-12-28T03:44:06.089Z,48.75
2022-12-28T03:46:41.929Z,49.33
2022-12-28T03:49:10.961Z,48.05
2022-12-28T03:51:44.422Z,49.22
2022-12-28T03:54:17.946Z,49.17
2022-12-28T03:56:54.145Z,46.22
2022-12-28T03:59:22.960Z,46.45
2022-12-28T04:01:51.240Z,48.65
2022-12-28T04:04:20.247Z,48.42
2022-12-28T04:06:50.883Z,46.28
2022-12-28T04:09:19.286Z,44.80
2022-12-28T04:11:51.561Z,43.47
2022-12-28T04:14:22.672Z,45.72
2022-12-28T04:16:53.266Z,44.20
2022-12-28T04:19:23.012Z,44.05
2022-12-28T04:21:54.028Z,48.40
2022-12-28T04:24:22.746Z,40.83
2022-12-28T04:26:51.743Z,40.28
2022-12-28T04:29:20.524Z,43.30
2022-12-28T04:31:49.488Z,40.33
2022-12-28T04:34:17.848Z,40.83
2022-12-28T04:36:49.266Z,41.22
2022-12-28T04:39:19.613Z,41.20
2022-12-28T04:41:47.831Z,40.78
2022-12-28T04:44:19.374Z,41.92
2022-12-28T04:46:47.923Z,42.53
2022-12-28T04:49:16.369Z,42.55
2022-12-28T04:51:44.720Z,39.75
2022-12-28T04:54:14.512Z,37.65
2022-12-28T04:56:46.870Z,39.45
2022-12-28T04:59:15.429Z,38.85
2022-12-28T05:01:45.371Z,40.92
2022-12-28T05:04:15.662Z,41.75
2022-12-28T05:06:47.307Z,50.65
2022-12-28T05:09:15.545Z,47.03
2022-12-28T05:11:45.206Z,50.10
2022-12-28T05:14:13.894Z,47.92
2022-12-28T05:16:45.052Z,49.72
2022-12-28T05:19:15.431Z,52.88
2022-12-28T05:21:45.459Z,54.80
2022-12-28T05:24:15.705Z,44.75
2022-12-28T05:26:45.481Z,47.25
2022-12-28T05:29:13.901Z,48.67
2022-12-28T05:31:43.535Z,43.53
2022-12-28T05:34:12.315Z,42.30
2022-12-28T05:36:42.104Z,46.85
2022-12-28T05:39:12.371Z,42.53
2022-12-28T05:41:40.979Z,41.05
2022-12-28T05:44:11.089Z,45.33
2022-12-28T05:46:45.871Z,45.50
2022-12-28T05:49:14.644Z,43.33
2022-12-28T05:51:44.258Z,44.10
2022-12-28T05:54:13.119Z,45.40
2022-12-28T05:56:42.229Z,40.22
2022-12-28T05:59:14.345Z,41.65
2022-12-28T06:01:45.716Z,42.28
2022-12-28T06:04:18.094Z,45.45
2022-12-28T06:06:50.604Z,47.35
2022-12-28T06:09:19.322Z,52.92
2022-12-28T06:11:47.898Z,49.40
2022-12-28T06:14:21.172Z,49.83
2022-12-28T06:16:49.952Z,47.40
2022-12-28T06:19:18.875Z,45.30
2022-12-28T06:21:47.487Z,50.58
2022-12-28T06:24:18.088Z,54.45
2022-12-28T06:26:46.928Z,50.33
2022-12-28T06:29:15.634Z,51.38
2022-12-28T06:31:51.265Z,53.88
2022-12-28T06:34:22.377Z,50.47
2022-12-28T06:36:52.679Z,49.42
2022-12-28T06:39:21.013Z,45.92
2022-12-28T06:41:52.800Z,50.83
2022-12-28T06:44:21.349Z,49.95
2022-12-28T06:46:51.843Z,48.78
2022-12-28T06:49:20.010Z,47.67
2022-12-28T06:51:49.844Z,48.42
2022-12-28T06:54:18.263Z,44.72
2022-12-28T06:56:46.565Z,45.08
2022-12-28T06:59:15.165Z,52.58
2022-12-28T07:01:47.520Z,54.25
2022-12-28T07:04:17.758Z,51.55
2022-12-28T07:06:46.111Z,49.85
2022-12-28T07:09:16.291Z,49.17
2022-12-28T07:11:47.302Z,52.28
2022-12-28T07:14:15.967Z,52.67
2022-12-28T07:16:44.697Z,56.85
2022-12-28T07:19:18.660Z,58.50
2022-12-28T07:21:47.101Z,59.42
2022-12-28T07:24:15.782Z,58.47
2022-12-28T07:26:45.362Z,53.20
2022-12-28T07:29:14.866Z,58.22
2022-12-28T07:34:16.526Z,55.67
2022-12-28T07:36:50.851Z,58.53
2022-12-28T07:39:19.202Z,61.38
2022-12-28T07:41:49.009Z,55.97
2022-12-28T07:44:18.124Z,55.85
2022-12-28T07:46:46.965Z,53.17
2022-12-28T07:49:16.397Z,50.53
2022-12-28T07:51:45.198Z,50.15
2022-12-28T07:54:15.004Z,50.25
2022-12-28T07:56:45.809Z,52.83
2022-12-28T07:59:14.357Z,61.93
2022-12-28T08:01:43.205Z,59.85
2022-12-28T08:04:17.575Z,53.75
2022-12-28T08:06:48.504Z,52.88
2022-12-28T08:09:19.295Z,46.33
2022-12-28T08:11:50.342Z,47.72
2022-12-28T08:14:19.749Z,44.73
2022-12-28T08:16:52.395Z,51.38
2022-12-28T08:19:22.265Z,47.22
2022-12-28T08:21:50.874Z,45.50
2022-12-28T08:24:21.320Z,47.85
2022-12-28T08:26:50.497Z,46.83
2022-12-28T08:29:22.089Z,48.95
2022-12-28T08:31:53.850Z,47.08
2022-12-28T08:34:27.492Z,49.60
2022-12-28T08:36:56.599Z,50.30
2022-12-28T08:39:26.479Z,50.03
2022-12-28T08:41:54.934Z,45.92
2022-12-28T08:44:26.642Z,48.35
2022-12-28T08:46:56.821Z,45.03
2022-12-28T08:49:25.115Z,47.03
2022-12-28T08:51:53.844Z,46.90
2022-12-28T08:54:22.620Z,40.92
2022-12-28T08:56:54.845Z,38.63
2022-12-28T08:59:23.413Z,41.08
2022-12-28T09:01:51.764Z,37.60
2022-12-28T09:04:22.296Z,38.40
2022-12-28T09:06:51.392Z,40.58
2022-12-28T09:09:23.160Z,43.90
2022-12-28T09:11:56.033Z,40.78
2022-12-28T09:14:24.963Z,41.83
2022-12-28T09:16:54.707Z,37.95
2022-12-28T09:19:23.383Z,40.20
2022-12-28T09:21:58.251Z,37.90
2022-12-28T09:24:26.963Z,38.90
2022-12-28T09:26:56.775Z,41.95
2022-12-28T09:29:25.199Z,35.10
2022-12-28T09:31:53.509Z,31.83
2022-12-28T09:34:38.201Z,30.83
2022-12-28T09:37:07.942Z,29.02
2022-12-28T09:39:36.367Z,30.05
2022-12-28T09:42:14.147Z,31.55
2022-12-28T09:44:53.687Z,27.50
2022-12-28T09:47:30.931Z,27.08
2022-12-28T09:50:13.186Z,32.20
2022-12-28T09:52:54.620Z,26.65
2022-12-28T09:55:27.521Z,30.45
2022-12-28T09:58:00.037Z,31.17
2022-12-28T10:00:35.343Z,33.78
2022-12-28T10:03:07.214Z,30.05
2022-12-28T10:05:35.767Z,28.23
2022-12-28T10:08:04.705Z,28.15
2022-12-28T10:10:33.762Z,26.23
2022-12-28T10:16:09.808Z,24.75
2022-12-28T10:21:09.042Z,22.67
2022-12-28T10:24:12.120Z,23.90
2022-12-28T10:26:31.953Z,22.80
2022-12-28T10:29:02.454Z,24.63
2022-12-28T10:31:36.595Z,25.38
2022-12-28T10:34:15.565Z,25.05
2022-12-28T10:36:46.512Z,24.67
2022-12-28T10:39:18.171Z,26.50
2022-12-28T10:41:47.682Z,26.90
2022-12-28T10:44:41.135Z,24.30
2022-12-28T10:47:26.267Z,24.92
2022-12-28T10:52:59.186Z,22.77
2022-12-28T10:55:29.298Z,25.70
2022-12-28T10:58:28.761Z,48.33
2022-12-28T11:00:57.465Z,26.70
2022-12-28T11:03:28.405Z,27.90
2022-12-28T11:06:15.508Z,26.35
2022-12-28T11:08:45.420Z,24.27
2022-12-28T11:11:22.631Z,26.35
2022-12-28T11:13:57.938Z,27.65
2022-12-28T11:16:31.843Z,32.05
2022-12-28T11:19:00.518Z,27.05
2022-12-28T11:21:29.223Z,27.15
2022-12-28T11:23:58.425Z,27.13
2022-12-28T11:26:30.403Z,25.17
2022-12-28T11:29:02.932Z,26.45
2022-12-28T11:31:39.090Z,25.77
2022-12-28T11:34:17.971Z,24.08
2022-12-28T11:36:46.357Z,25.80
2022-12-28T11:39:45.092Z,27.35
2022-12-28T11:42:39.618Z,25.58
2022-12-28T11:45:19.920Z,30.67
2022-12-28T11:47:51.052Z,28.35
2022-12-28T11:50:52.499Z,28.15
2022-12-28T11:53:45.386Z,24.83
2022-12-28T11:56:20.682Z,25.20
2022-12-28T11:59:03.794Z,23.30
2022-12-28T12:01:49.302Z,19.20
2022-12-28T12:04:36.586Z,16.25
2022-12-28T12:07:31.653Z,18.25
2022-12-28T12:10:34.279Z,16.90
2022-12-28T12:13:22.626Z,20.23
2022-12-28T12:15:52.144Z,21.17
2022-12-28T12:18:23.413Z,14.90
2022-12-28T12:21:00.778Z,15.15
2022-12-28T12:23:40.491Z,22.88
2022-12-28T12:26:22.208Z,15.45
2022-12-28T12:28:55.193Z,18.80
2022-12-28T12:31:30.584Z,16.60
2022-12-28T12:34:07.346Z,13.52
2022-12-28T12:37:16.100Z,18.30
2022-12-28T12:40:04.998Z,17.20
2022-12-28T12:42:40.659Z,20.58
2022-12-28T12:45:23.985Z,16.92
2022-12-28T12:48:08.173Z,15.75
2022-12-28T12:51:11.161Z,18.27
2022-12-28T12:54:09.619Z,21.75
2022-12-28T12:56:46.788Z,17.70
2022-12-28T12:59:37.438Z,17.65
2022-12-28T13:02:26.472Z,17.65
2022-12-28T13:04:56.380Z,15.82
2022-12-28T13:07:28.080Z,15.82
2022-12-28T13:10:00.238Z,18.25
2022-12-28T13:12:28.927Z,15.40
2022-12-28T13:15:00.715Z,13.02
2022-12-28T13:17:30.713Z,18.85
2022-12-28T13:20:19.332Z,13.88
2022-12-28T13:22:50.164Z,12.63
2022-12-28T13:25:26.134Z,13.32
2022-12-28T13:27:55.109Z,12.15
2022-12-28T13:30:27.612Z,14.77
2022-12-28T13:33:00.517Z,14.63
2022-12-28T13:35:33.760Z,13.73
2022-12-28T13:38:04.447Z,14.77
2022-12-28T13:40:34.971Z,12.02
2022-12-28T13:43:36.879Z,14.07
2022-12-28T13:46:11.086Z,12.77
2022-12-28T13:48:47.677Z,13.65
2022-12-28T13:51:20.087Z,14.43
2022-12-28T13:53:53.367Z,12.82
2022-12-28T13:56:23.815Z,13.15
2022-12-28T13:58:56.778Z,12.82
2022-12-28T14:01:29.414Z,12.80
2022-12-28T14:04:50.698Z,15.30
2022-12-28T14:07:02.423Z,14.07
2022-12-28T14:09:31.876Z,15.85
2022-12-28T14:12:02.647Z,18.23
2022-12-28T14:14:31.374Z,13.50
2022-12-28T14:17:02.507Z,13.27
2022-12-28T14:19:33.947Z,13.07
2022-12-28T14:22:03.301Z,14.38
2022-12-28T14:24:33.207Z,13.90
2022-12-28T14:27:06.864Z,11.98
2022-12-28T14:29:36.099Z,11.98
2022-12-28T14:32:14.221Z,14.98
2022-12-28T14:34:48.555Z,17.42
2022-12-28T14:37:25.465Z,16.88
2022-12-28T14:39:59.083Z,20.50
2022-12-28T14:42:31.453Z,23.83
2022-12-28T14:48:35.060Z,25.88
2022-12-28T14:51:26.089Z,25.20
2022-12-28T14:54:20.914Z,22.85
2022-12-28T14:56:53.617Z,18.95
2022-12-28T14:59:30.733Z,21.63
2022-12-28T15:00:16.221Z,22.15
2022-12-28T15:01:59.254Z,17.38
2022-12-28T15:04:35.010Z,16.38
2022-12-28T15:07:05.929Z,17.35
2022-12-28T15:09:38.835Z,16.23
2022-12-28T15:12:18.093Z,20.92
2022-12-28T15:14:47.606Z,19.92
2022-12-28T15:17:17.749Z,23.73
2022-12-28T15:19:46.846Z,19.45
2022-12-28T15:22:18.682Z,22.90
2022-12-28T15:24:51.838Z,28.40
2022-12-28T15:27:20.189Z,27.35
2022-12-28T15:30:05.650Z,30.40
2022-12-28T15:32:34.710Z,36.38
2022-12-28T15:35:04.162Z,47.75
2022-12-28T15:37:36.130Z,72.70
2022-12-28T15:42:40.054Z,72.47
2022-12-28T15:45:12.506Z,66.78
2022-12-28T15:47:41.210Z,219.52
2022-12-28T15:50:11.818Z,280.65
2022-12-28T15:52:42.863Z,210.80
2022-12-28T15:55:11.503Z,228.90
2022-12-28T15:57:42.674Z,192.10
2022-12-28T16:00:18.394Z,150.15
2022-12-28T16:02:47.777Z,131.45
2022-12-28T16:05:16.343Z,139.55
2022-12-28T16:07:47.169Z,169.60
2022-12-28T16:10:16.203Z,165.68
2022-12-28T16:12:44.706Z,132.35
2022-12-28T16:15:13.235Z,115.88
2022-12-28T16:17:51.087Z,113.22
2022-12-28T16:20:24.128Z,101.65
2022-12-28T16:22:54.406Z,125.50
2022-12-28T16:25:22.635Z,120.68
2022-12-28T16:27:51.051Z,113.30
2022-12-28T16:30:20.125Z,125.05
2022-12-28T16:32:48.800Z,125.82
2022-12-28T16:35:17.665Z,160.13
2022-12-28T16:37:46.097Z,132.52
2022-12-28T16:40:16.379Z,134.43
2022-12-28T16:42:49.834Z,135.32
2022-12-28T16:45:18.432Z,131.82
2022-12-28T16:47:46.901Z,97.05
2022-12-28T16:50:18.438Z,102.32
2022-12-28T16:52:47.164Z,118.47
2022-12-28T16:55:17.060Z,129.02
2022-12-28T16:57:45.859Z,122.47
2022-12-28T17:00:15.042Z,114.57
2022-12-28T17:02:43.982Z,111.45
2022-12-28T17:05:13.319Z,78.75
2022-12-28T17:07:41.675Z,88.05
2022-12-28T17:10:12.187Z,92.05
2022-12-28T17:12:42.400Z,90.53
2022-12-28T17:15:12.028Z,108.90
2022-12-28T17:17:41.479Z,120.55
2022-12-28T17:20:10.786Z,118.50
2022-12-28T17:22:39.296Z,123.50
2022-12-28T17:25:08.210Z,122.30
2022-12-28T17:27:37.200Z,119.80
2022-12-28T17:30:08.756Z,113.90
2022-12-28T17:32:37.049Z,105.33
2022-12-28T17:35:05.799Z,75.20
2022-12-28T17:37:37.406Z,60.97
2022-12-28T17:40:06.911Z,54.10
2022-12-28T17:42:35.957Z,52.88
2022-12-28T17:45:11.363Z,50.00
2022-12-28T17:47:40.643Z,47.92
2022-12-28T17:50:10.196Z,53.13
2022-12-28T17:52:38.721Z,49.83
2022-12-28T17:55:07.685Z,55.78
2022-12-28T17:57:38.826Z,43.75
2022-12-28T18:00:11.985Z,52.47
2022-12-28T18:02:41.055Z,51.22
2022-12-28T18:05:10.252Z,40.15
2022-12-28T18:07:38.739Z,43.03
2022-12-28T18:10:09.368Z,44.25
2022-12-28T18:12:38.169Z,41.70
2022-12-28T18:15:09.774Z,43.67
2022-12-28T18:17:39.631Z,32.38
2022-12-28T18:20:10.225Z,34.70
2022-12-28T18:22:39.011Z,33.22
2022-12-28T18:25:07.811Z,34.92
2022-12-28T18:27:38.941Z,34.80
2022-12-28T18:30:11.048Z,31.17
2022-12-28T18:35:11.178Z,29.50
2022-12-28T18:37:40.113Z,27.02
2022-12-28T18:40:10.961Z,30.00
2022-12-28T18:42:40.115Z,31.83
2022-12-28T18:45:11.070Z,33.05
2022-12-28T18:47:39.318Z,45.67
2022-12-28T18:50:09.832Z,50.88
2022-12-28T18:52:41.584Z,41.80
2022-12-28T18:55:13.047Z,41.78
2022-12-28T18:57:42.120Z,41.55
2022-12-28T19:00:14.620Z,37.33
2022-12-28T19:02:43.483Z,46.85
2022-12-28T19:05:15.606Z,61.13
2022-12-28T19:07:49.123Z,70.75
2022-12-28T19:10:21.375Z,63.17
2022-12-28T19:12:50.186Z,63.97
2022-12-28T19:15:20.725Z,63.35
2022-12-28T19:17:49.177Z,57.17
2022-12-28T19:20:18.715Z,58.58
2022-12-28T19:22:48.241Z,50.83
2022-12-28T19:25:17.298Z,54.58
2022-12-28T19:27:45.820Z,49.03
2022-12-28T19:30:14.593Z,48.25
2022-12-28T19:32:47.196Z,43.53
2022-12-28T19:35:16.535Z,41.00
2022-12-28T19:37:44.726Z,53.33
2022-12-28T19:40:13.803Z,55.00
2022-12-28T19:42:43.080Z,49.00
2022-12-28T19:45:12.021Z,39.80
2022-12-28T19:47:40.766Z,43.60
2022-12-28T19:50:15.622Z,45.90
2022-12-28T19:52:44.525Z,48.83
2022-12-28T19:55:13.097Z,50.08
2022-12-28T19:57:41.664Z,50.05
2022-12-28T20:00:12.757Z,52.00
2022-12-28T20:02:43.970Z,48.53
2022-12-28T20:05:15.377Z,43.67
2022-12-28T20:07:44.779Z,47.33
2022-12-28T20:10:14.384Z,42.42
2022-12-28T20:12:42.662Z,41.47
2022-12-28T20:15:11.713Z,41.42
2022-12-28T20:17:42.138Z,61.25
2022-12-28T20:20:10.943Z,72.47
2022-12-28T20:22:43.562Z,56.22
2022-12-28T20:25:11.873Z,40.55
2022-12-28T20:27:40.376Z,40.30
2022-12-28T20:30:11.629Z,33.92
2022-12-28T20:32:44.753Z,33.92
2022-12-28T20:35:13.997Z,33.20
2022-12-28T20:37:44.866Z,32.40
2022-12-28T20:40:13.978Z,33.03
2022-12-28T20:43:02.655Z,33.28
2022-12-28T20:45:35.153Z,32.80
2022-12-28T20:48:06.739Z,29.63
2022-12-28T20:50:35.122Z,34.28
2022-12-28T20:53:04.912Z,31.17
2022-12-28T20:55:33.715Z,31.20
2022-12-28T20:58:02.094Z,31.35
2022-12-28T21:00:31.056Z,33.03
2022-12-28T21:03:03.363Z,33.58
2022-12-28T21:05:34.265Z,32.35
2022-12-28T21:08:05.804Z,33.92
2022-12-28T21:10:34.499Z,32.15
2022-12-28T21:13:03.368Z,32.22
2022-12-28T21:15:31.743Z,33.80
2022-12-28T21:18:00.416Z,33.78
2022-12-28T21:20:35.439Z,35.15
2022-12-28T21:23:09.092Z,36.40
2022-12-28T21:25:38.000Z,39.83
2022-12-28T21:28:10.235Z,41.60
2022-12-28T21:30:39.185Z,39.33
2022-12-28T21:33:07.697Z,38.92
2022-12-28T21:35:36.046Z,36.13
2022-12-28T21:38:06.262Z,36.03
2022-12-28T21:40:37.771Z,38.20
2022-12-28T21:43:06.392Z,37.70
2022-12-28T21:45:34.837Z,37.55
2022-12-28T21:48:04.061Z,34.45
2022-12-28T21:50:32.527Z,36.72
2022-12-28T21:53:01.168Z,36.55
2022-12-28T21:55:51.930Z,36.85
2022-12-28T21:58:22.248Z,40.38
2022-12-28T22:01:09.218Z,34.58
2022-12-28T22:03:57.846Z,35.63
2022-12-28T22:06:26.216Z,41.05
2022-12-28T22:09:11.282Z,37.22
2022-12-28T22:11:56.963Z,36.90
2022-12-28T22:14:26.918Z,37.83
2022-12-28T22:16:55.446Z,35.53
2022-12-28T22:19:27.141Z,39.15
2022-12-28T22:21:56.179Z,39.10
2022-12-28T22:24:24.783Z,38.90
2022-12-28T22:26:53.002Z,38.17
2022-12-28T22:29:24.051Z,35.20
2022-12-28T22:31:53.996Z,38.93
2022-12-28T22:34:22.622Z,34.70
2022-12-28T22:36:51.069Z,34.92
2022-12-28T22:39:19.326Z,38.30
2022-12-28T22:41:48.339Z,32.72
2022-12-28T22:44:16.764Z,35.40
2022-12-28T22:46:48.391Z,35.00
2022-12-28T22:51:46.837Z,37.50
2022-12-28T22:54:15.609Z,36.53
2022-12-28T22:56:43.926Z,44.85
2022-12-28T22:59:15.535Z,39.08
2022-12-28T23:04:14.738Z,38.45
2022-12-28T23:06:45.955Z,37.80
2022-12-28T23:09:14.562Z,38.30
2022-12-28T23:11:43.147Z,43.03
2022-12-28T23:14:32.087Z,42.70
2022-12-28T23:17:00.997Z,41.40
2022-12-28T23:19:47.989Z,42.20
2022-12-28T23:22:37.881Z,40.67
2022-12-28T23:25:25.948Z,41.35
2022-12-28T23:27:54.703Z,39.58
2022-12-28T23:30:27.877Z,44.33
2022-12-28T23:32:57.012Z,40.28
2022-12-28T23:35:27.547Z,40.22
2022-12-28T23:37:57.706Z,40.67
2022-12-28T23:40:29.695Z,42.15
2022-12-28T23:42:59.323Z,44.40
2022-12-28T23:45:27.846Z,42.28
2022-12-28T23:47:56.257Z,44.80
2022-12-28T23:50:24.636Z,43.55
2022-12-28T23:52:52.913Z,42.65
2022-12-28T23:55:23.339Z,40.58
2022-12-28T23:57:53.056Z,42.55
